createdAt,value
2022-07-31T00:00:14.671Z,77.23
2022-07-31T00:01:14.592Z,77.17
2022-07-31T00:02:14.554Z,77.42
2022-07-31T00:03:14.572Z,77.03
2022-07-31T00:04:14.467Z,77.03
2022-07-31T00:05:14.532Z,77.90
2022-07-31T00:06:14.390Z,77.90
2022-07-31T00:07:14.339Z,77.46
2022-07-31T00:08:14.332Z,77.90
2022-07-31T00:09:45.399Z,78.00
2022-07-31T00:10:14.212Z,78.00
2022-07-31T00:11:14.169Z,78.38
2022-07-31T00:12:14.128Z,78.86
2022-07-31T00:13:14.084Z,78.09
2022-07-31T00:14:14.043Z,78.38
2022-07-31T00:15:13.996Z,79.06
2022-07-31T00:16:13.957Z,79.06
2022-07-31T00:17:13.911Z,79.25
2022-07-31T00:18:13.872Z,79.54
2022-07-31T00:19:13.828Z,79.35
2022-07-31T00:20:13.786Z,79.64
2022-07-31T00:21:13.746Z,79.54
2022-07-31T00:22:13.702Z,79.54
2022-07-31T00:23:13.656Z,79.35
2022-07-31T00:24:13.617Z,80.31
2022-07-31T00:25:13.577Z,80.27
2022-07-31T00:27:13.486Z,79.60
2022-07-31T00:28:13.448Z,79.41
2022-07-31T00:29:16.195Z,79.31
2022-07-31T00:30:13.363Z,79.31
2022-07-31T00:31:13.318Z,79.60
2022-07-31T00:32:13.273Z,79.41
2022-07-31T00:33:13.233Z,79.41
2022-07-31T00:34:13.191Z,80.37
2022-07-31T00:35:13.147Z,80.08
2022-07-31T00:36:13.103Z,79.89
2022-07-31T00:37:13.069Z,79.89
2022-07-31T00:38:28.326Z,80.46
2022-07-31T00:39:12.975Z,80.85
2022-07-31T00:40:12.934Z,80.56
2022-07-31T00:41:12.893Z,81.33
2022-07-31T00:42:12.848Z,80.94
2022-07-31T00:43:12.808Z,81.72
2022-07-31T00:44:12.780Z,81.72
2022-07-31T00:45:13.662Z,82.01
2022-07-31T00:46:14.477Z,82.01
2022-07-31T00:47:12.633Z,82.01
2022-07-31T00:48:12.593Z,82.16
2022-07-31T00:49:12.619Z,81.96
2022-07-31T00:50:12.509Z,81.39
2022-07-31T00:51:12.462Z,81.96
2022-07-31T00:52:12.420Z,81.87
2022-07-31T00:53:12.378Z,82.06
2022-07-31T00:54:22.405Z,82.16
2022-07-31T00:55:12.295Z,82.35
2022-07-31T00:56:12.251Z,82.35
2022-07-31T00:57:12.210Z,82.74
2022-07-31T00:58:12.163Z,82.83
2022-07-31T00:59:12.120Z,82.54
2022-07-31T01:00:12.078Z,82.54
2022-07-31T01:01:12.097Z,82.74
2022-07-31T01:02:11.991Z,83.31
2022-07-31T01:03:11.950Z,83.03
2022-07-31T01:04:15.584Z,83.70
2022-07-31T01:05:11.862Z,83.70
2022-07-31T01:06:11.823Z,83.80
2022-07-31T01:07:11.775Z,83.18
2022-07-31T01:08:11.735Z,83.70
2022-07-31T01:09:11.692Z,83.66
2022-07-31T01:10:11.655Z,83.95
2022-07-31T01:11:11.619Z,83.95
2022-07-31T01:12:11.565Z,83.95
2022-07-31T01:13:11.522Z,83.85
2022-07-31T01:14:11.479Z,84.43
2022-07-31T01:15:11.433Z,85.00
2022-07-31T01:16:11.391Z,84.81
2022-07-31T01:17:11.347Z,85.00
2022-07-31T01:18:11.307Z,85.39
2022-07-31T01:19:11.260Z,85.20
2022-07-31T01:20:11.222Z,85.49
2022-07-31T01:21:11.179Z,85.49
2022-07-31T01:22:34.708Z,85.30
2022-07-31T01:23:11.089Z,85.49
2022-07-31T01:24:11.050Z,85.58
2022-07-31T01:25:11.006Z,85.20
2022-07-31T01:26:10.965Z,85.30
2022-07-31T01:27:10.922Z,85.39
2022-07-31T01:28:10.876Z,85.97
2022-07-31T01:29:10.834Z,85.74
2022-07-31T01:30:10.791Z,85.68
2022-07-31T01:31:26.775Z,85.44
2022-07-31T01:32:10.704Z,85.25
2022-07-31T01:33:10.658Z,85.16
2022-07-31T01:34:10.622Z,85.87
2022-07-31T01:35:10.574Z,85.93
2022-07-31T01:36:10.532Z,86.02
2022-07-31T01:37:10.628Z,86.31
2022-07-31T01:38:10.446Z,86.12
2022-07-31T01:39:10.403Z,86.31
2022-07-31T01:40:10.367Z,86.69
2022-07-31T01:41:10.316Z,86.60
2022-07-31T01:42:10.275Z,87.08
2022-07-31T01:43:10.233Z,86.99
2022-07-31T01:44:14.197Z,86.99
2022-07-31T01:45:10.144Z,87.08
2022-07-31T01:46:10.103Z,86.89
2022-07-31T01:47:10.057Z,86.99
2022-07-31T01:48:10.021Z,86.89
2022-07-31T01:49:10.042Z,87.18
2022-07-31T01:50:43.110Z,86.89
2022-07-31T01:51:09.884Z,86.89
2022-07-31T01:52:09.847Z,87.66
2022-07-31T01:53:09.798Z,87.95
2022-07-31T01:54:09.756Z,87.56
2022-07-31T01:55:09.710Z,87.85
2022-07-31T01:56:09.671Z,87.85
2022-07-31T01:57:09.627Z,88.14
2022-07-31T01:58:09.589Z,88.04
2022-07-31T01:59:20.077Z,87.95
2022-07-31T02:00:23.508Z,88.04
2022-07-31T02:01:11.635Z,88.33
2022-07-31T02:02:09.984Z,88.19
2022-07-31T02:03:10.473Z,88.62
2022-07-31T02:04:10.355Z,88.24
2022-07-31T02:05:09.281Z,88.39
2022-07-31T02:06:09.239Z,88.43
2022-07-31T02:07:09.201Z,88.62
2022-07-31T02:08:09.154Z,88.67
2022-07-31T02:09:09.109Z,88.77
2022-07-31T02:10:09.068Z,89.29
2022-07-31T02:11:09.019Z,88.77
2022-07-31T02:12:09.472Z,89.39
2022-07-31T02:13:08.933Z,89.25
2022-07-31T02:14:08.894Z,89.54
2022-07-31T02:15:08.847Z,89.44
2022-07-31T02:16:08.815Z,89.73
2022-07-31T02:17:08.761Z,89.83
2022-07-31T02:18:08.721Z,89.83
2022-07-31T02:19:08.674Z,89.83
2022-07-31T02:20:08.632Z,89.73
2022-07-31T02:21:08.590Z,89.73
2022-07-31T02:22:08.547Z,90.41
2022-07-31T02:23:08.499Z,90.21
2022-07-31T02:24:08.461Z,90.69
2022-07-31T02:25:08.419Z,90.69
2022-07-31T02:26:08.376Z,90.89
2022-07-31T02:27:56.957Z,90.89
2022-07-31T02:28:08.287Z,90.69
2022-07-31T02:29:08.243Z,90.69
2022-07-31T02:30:08.202Z,91.27
2022-07-31T02:31:08.182Z,91.17
2022-07-31T02:32:08.114Z,91.66
2022-07-31T02:33:08.069Z,91.36
2022-07-31T02:34:08.028Z,91.66
2022-07-31T02:35:08.185Z,91.46
2022-07-31T02:36:07.938Z,91.80
2022-07-31T02:37:07.894Z,91.99
2022-07-31T02:39:34.650Z,92.47
2022-07-31T02:40:34.604Z,93.24
2022-07-31T02:41:34.565Z,93.15
2022-07-31T02:42:34.520Z,93.34
2022-07-31T02:43:34.480Z,93.73
2022-07-31T02:44:34.435Z,94.01
2022-07-31T02:45:34.391Z,93.73
2022-07-31T02:46:34.346Z,93.91
2022-07-31T02:47:34.306Z,94.21
2022-07-31T02:48:34.261Z,93.91
2022-07-31T02:49:34.297Z,94.21
2022-07-31T02:50:34.172Z,93.91
2022-07-31T02:51:42.610Z,93.82
2022-07-31T02:52:34.086Z,93.73
2022-07-31T02:53:34.043Z,93.82
2022-07-31T02:54:34.004Z,94.30
2022-07-31T02:55:33.955Z,94.21
2022-07-31T02:56:33.910Z,94.01
2022-07-31T02:57:33.868Z,93.91
2022-07-31T02:58:33.824Z,93.73
2022-07-31T02:59:33.785Z,93.91
2022-07-31T03:00:33.924Z,93.24
2022-07-31T03:01:33.701Z,94.11
2022-07-31T03:02:37.087Z,94.06
2022-07-31T03:03:33.608Z,93.73
2022-07-31T03:04:33.566Z,93.82
2022-07-31T03:05:33.524Z,94.01
2022-07-31T03:06:33.476Z,94.49
2022-07-31T03:07:33.433Z,94.59
2022-07-31T03:08:33.389Z,94.30
2022-07-31T03:09:33.348Z,94.78
2022-07-31T03:10:33.306Z,94.59
2022-07-31T03:11:33.261Z,95.03
2022-07-31T03:12:33.218Z,94.68
2022-07-31T03:13:33.173Z,95.03
2022-07-31T03:14:33.199Z,95.12
2022-07-31T03:15:33.089Z,95.31
2022-07-31T03:16:33.040Z,95.36
2022-07-31T03:17:38.409Z,95.31
2022-07-31T03:18:32.954Z,95.31
2022-07-31T03:19:32.911Z,95.03
2022-07-31T03:20:32.866Z,95.50
2022-07-31T03:21:32.825Z,95.40
2022-07-31T03:22:32.777Z,95.50
2022-07-31T03:23:32.735Z,95.60
2022-07-31T03:24:32.693Z,95.70
2022-07-31T03:25:32.651Z,95.60
2022-07-31T03:26:32.608Z,95.60
2022-07-31T03:27:32.561Z,95.60
2022-07-31T03:28:32.515Z,95.79
2022-07-31T03:29:39.316Z,95.60
2022-07-31T03:30:32.429Z,95.89
2022-07-31T03:31:32.387Z,95.60
2022-07-31T03:32:32.341Z,95.60
2022-07-31T03:33:32.298Z,95.70
2022-07-31T03:34:32.257Z,95.98
2022-07-31T03:35:32.212Z,95.79
2022-07-31T03:36:32.166Z,96.08
2022-07-31T03:37:32.126Z,95.40
2022-07-31T03:38:39.484Z,95.70
2022-07-31T03:39:32.038Z,95.21
2022-07-31T03:40:31.992Z,95.21
2022-07-31T03:41:31.950Z,95.40
2022-07-31T03:42:31.906Z,95.03
2022-07-31T03:43:44.223Z,95.21
2022-07-31T03:44:31.820Z,94.35
2022-07-31T03:45:31.781Z,94.26
2022-07-31T03:46:31.730Z,93.77
2022-07-31T03:47:31.690Z,93.82
2022-07-31T03:48:31.642Z,94.16
2022-07-31T03:49:31.671Z,93.96
2022-07-31T03:50:31.559Z,93.91
2022-07-31T03:51:31.513Z,93.39
2022-07-31T03:52:31.473Z,93.34
2022-07-31T03:53:31.427Z,93.05
2022-07-31T03:54:31.382Z,92.96
2022-07-31T03:55:31.341Z,93.05
2022-07-31T03:56:31.293Z,92.86
2022-07-31T03:57:34.051Z,92.76
2022-07-31T03:58:31.214Z,92.19
2022-07-31T03:59:35.328Z,92.67
2022-07-31T04:00:31.125Z,92.38
2022-07-31T04:01:57.548Z,91.61
2022-07-31T04:02:31.921Z,91.61
2022-07-31T04:04:30.948Z,90.36
2022-07-31T04:05:30.900Z,91.03
2022-07-31T04:06:30.861Z,91.61
2022-07-31T04:07:30.815Z,91.03
2022-07-31T04:08:30.771Z,91.22
2022-07-31T04:09:30.731Z,91.22
2022-07-31T04:10:30.685Z,90.26
2022-07-31T04:11:30.641Z,89.78
2022-07-31T04:12:30.596Z,88.63
2022-07-31T04:13:30.553Z,88.73
2022-07-31T04:14:30.511Z,88.82
2022-07-31T04:15:30.468Z,89.25
2022-07-31T04:16:30.422Z,89.15
2022-07-31T04:17:30.713Z,89.15
2022-07-31T04:18:30.338Z,89.25
2022-07-31T04:19:30.292Z,88.39
2022-07-31T04:20:30.248Z,88.29
2022-07-31T04:21:30.204Z,88.29
2022-07-31T04:22:30.164Z,87.71
2022-07-31T04:23:32.546Z,88.00
2022-07-31T04:24:30.077Z,87.71
2022-07-31T04:25:30.031Z,87.90
2022-07-31T04:26:29.988Z,87.04
2022-07-31T04:27:29.945Z,86.94
2022-07-31T04:28:29.905Z,87.76
2022-07-31T04:29:29.855Z,87.76
2022-07-31T04:30:29.816Z,87.56
2022-07-31T04:31:29.772Z,87.66
2022-07-31T04:32:29.728Z,87.71
2022-07-31T04:33:29.683Z,87.85
2022-07-31T04:34:29.644Z,87.95
2022-07-31T04:35:29.598Z,87.95
2022-07-31T04:36:30.937Z,87.95
2022-07-31T04:37:29.515Z,87.95
2022-07-31T04:38:29.470Z,86.69
2022-07-31T04:39:29.423Z,87.18
2022-07-31T04:40:29.382Z,86.79
2022-07-31T04:41:29.336Z,86.89
2022-07-31T04:42:29.296Z,86.89
2022-07-31T04:43:29.251Z,86.89
2022-07-31T04:44:29.211Z,87.18
2022-07-31T04:46:29.121Z,87.46
2022-07-31T04:47:29.082Z,86.79
2022-07-31T04:48:29.036Z,86.99
2022-07-31T04:49:29.148Z,87.08
2022-07-31T04:50:28.953Z,87.27
2022-07-31T04:51:28.904Z,87.46
2022-07-31T04:52:28.862Z,87.41
2022-07-31T04:53:28.822Z,87.12
2022-07-31T04:54:28.776Z,87.03
2022-07-31T04:55:28.737Z,86.99
2022-07-31T04:56:28.691Z,87.03
2022-07-31T04:57:28.650Z,87.18
2022-07-31T04:58:28.605Z,87.03
2022-07-31T04:59:57.877Z,87.12
2022-07-31T05:00:28.516Z,86.83
2022-07-31T05:01:28.532Z,86.93
2022-07-31T05:02:28.430Z,87.03
2022-07-31T05:03:28.389Z,86.45
2022-07-31T05:04:28.347Z,85.97
2022-07-31T05:05:28.303Z,85.68
2022-07-31T05:06:28.258Z,85.58
2022-07-31T05:07:28.760Z,86.45
2022-07-31T05:08:28.171Z,86.26
2022-07-31T05:09:28.132Z,85.97
2022-07-31T05:10:28.085Z,86.45
2022-07-31T05:11:28.042Z,85.78
2022-07-31T05:12:28.000Z,86.07
2022-07-31T05:13:27.960Z,85.97
2022-07-31T05:14:27.915Z,86.07
2022-07-31T05:15:27.871Z,85.58
2022-07-31T05:16:27.826Z,85.97
2022-07-31T05:17:27.784Z,86.16
2022-07-31T05:18:27.740Z,86.49
2022-07-31T05:19:27.699Z,85.82
2022-07-31T05:20:27.661Z,86.69
2022-07-31T05:21:27.621Z,86.40
2022-07-31T05:22:27.569Z,86.59
2022-07-31T05:23:27.527Z,86.30
2022-07-31T05:24:32.681Z,86.21
2022-07-31T05:25:27.440Z,86.59
2022-07-31T05:26:27.395Z,86.49
2022-07-31T05:27:29.395Z,87.36
2022-07-31T05:28:30.051Z,86.98
2022-07-31T05:29:27.267Z,87.07
2022-07-31T05:30:30.497Z,86.88
2022-07-31T05:31:27.182Z,87.55
2022-07-31T05:32:27.136Z,87.46
2022-07-31T05:33:27.097Z,87.74
2022-07-31T05:34:27.055Z,87.74
2022-07-31T05:35:27.014Z,87.07
2022-07-31T05:36:26.963Z,87.50
2022-07-31T05:37:26.925Z,86.59
2022-07-31T05:38:26.883Z,86.30
2022-07-31T05:39:26.839Z,86.88
2022-07-31T05:40:26.794Z,86.11
2022-07-31T05:41:26.752Z,86.21
2022-07-31T05:42:26.708Z,86.54
2022-07-31T05:43:26.669Z,86.88
2022-07-31T05:44:26.621Z,86.21
2022-07-31T05:45:26.583Z,86.25
2022-07-31T05:46:26.538Z,85.67
2022-07-31T05:47:26.507Z,85.47
2022-07-31T05:48:26.455Z,85.67
2022-07-31T05:49:26.525Z,85.57
2022-07-31T05:50:26.367Z,85.57
2022-07-31T05:51:26.324Z,85.28
2022-07-31T05:52:26.279Z,85.38
2022-07-31T05:53:26.240Z,85.57
2022-07-31T05:54:26.194Z,86.05
2022-07-31T05:55:26.151Z,85.47
2022-07-31T05:56:26.108Z,85.67
2022-07-31T05:57:32.950Z,85.67
2022-07-31T05:58:26.023Z,86.05
2022-07-31T05:59:25.989Z,85.86
2022-07-31T06:00:25.935Z,85.77
2022-07-31T06:01:25.967Z,87.12
2022-07-31T06:02:25.849Z,87.12
2022-07-31T06:03:25.809Z,86.82
2022-07-31T06:04:25.764Z,85.86
2022-07-31T06:05:25.723Z,85.67
2022-07-31T06:06:25.678Z,85.77
2022-07-31T06:07:25.639Z,85.81
2022-07-31T06:08:25.594Z,85.71
2022-07-31T06:09:25.552Z,85.71
2022-07-31T06:10:25.520Z,85.33
2022-07-31T06:11:25.467Z,84.75
2022-07-31T06:12:25.424Z,85.03
2022-07-31T06:13:25.385Z,84.27
2022-07-31T06:14:25.337Z,84.46
2022-07-31T06:15:25.300Z,84.84
2022-07-31T06:16:25.253Z,84.75
2022-07-31T06:17:40.331Z,84.65
2022-07-31T06:18:25.167Z,84.65
2022-07-31T06:19:25.124Z,84.55
2022-07-31T06:20:25.080Z,83.88
2022-07-31T06:21:30.139Z,84.50
2022-07-31T06:22:24.995Z,84.55
2022-07-31T06:23:29.645Z,85.17
2022-07-31T06:24:24.915Z,85.17
2022-07-31T06:25:24.869Z,85.08
2022-07-31T06:26:26.113Z,85.56
2022-07-31T06:27:33.255Z,84.98
2022-07-31T06:28:32.864Z,84.98
2022-07-31T06:29:41.260Z,85.08
2022-07-31T06:30:24.656Z,84.98
2022-07-31T06:31:24.620Z,85.37
2022-07-31T06:32:24.574Z,84.98
2022-07-31T06:33:37.798Z,85.27
2022-07-31T06:34:24.488Z,85.50
2022-07-31T06:35:24.446Z,85.31
2022-07-31T06:36:24.400Z,84.06
2022-07-31T06:37:24.360Z,83.96
2022-07-31T06:38:24.321Z,83.77
2022-07-31T06:39:24.283Z,83.58
2022-07-31T06:40:24.230Z,83.87
2022-07-31T06:41:24.195Z,83.19
2022-07-31T06:42:24.146Z,83.39
2022-07-31T06:43:24.106Z,82.61
2022-07-31T06:45:52.657Z,82.71
2022-07-31T06:46:51.368Z,82.51
2022-07-31T06:47:51.333Z,82.32
2022-07-31T06:48:51.316Z,82.51
2022-07-31T06:49:51.296Z,82.42
2022-07-31T06:50:56.628Z,82.32
2022-07-31T06:51:51.158Z,82.71
2022-07-31T06:52:51.114Z,81.74
2022-07-31T06:53:51.076Z,81.68
2022-07-31T06:54:51.029Z,82.03
2022-07-31T06:55:50.990Z,81.84
2022-07-31T06:56:50.945Z,81.88
2022-07-31T06:57:50.905Z,82.03
2022-07-31T06:58:50.860Z,81.84
2022-07-31T06:59:50.820Z,81.84
2022-07-31T07:00:50.778Z,81.74
2022-07-31T07:01:50.812Z,81.88
2022-07-31T07:02:50.692Z,81.88
2022-07-31T07:03:50.651Z,81.68
2022-07-31T07:05:04.443Z,81.78
2022-07-31T07:05:50.567Z,82.07
2022-07-31T07:06:50.523Z,82.65
2022-07-31T07:07:50.483Z,82.26
2022-07-31T07:08:50.450Z,82.13
2022-07-31T07:09:50.400Z,82.23
2022-07-31T07:10:50.354Z,82.61
2022-07-31T07:11:54.649Z,82.71
2022-07-31T07:12:50.270Z,83.19
2022-07-31T07:13:50.231Z,83.77
2022-07-31T07:14:50.184Z,84.64
2022-07-31T07:15:50.143Z,86.66
2022-07-31T07:16:50.101Z,87.24
2022-07-31T07:17:50.060Z,87.87
2022-07-31T07:18:50.014Z,88.35
2022-07-31T07:19:49.974Z,88.25
2022-07-31T07:20:49.930Z,88.89
2022-07-31T07:21:49.896Z,89.31
2022-07-31T07:22:49.847Z,88.73
2022-07-31T07:23:49.805Z,88.64
2022-07-31T07:24:49.763Z,89.07
2022-07-31T07:25:49.722Z,89.61
2022-07-31T07:26:49.680Z,89.41
2022-07-31T07:27:49.839Z,88.93
2022-07-31T07:28:49.593Z,87.34
2022-07-31T07:29:49.555Z,86.52
2022-07-31T07:30:49.509Z,87.34
2022-07-31T07:31:49.468Z,87.24
2022-07-31T07:32:49.422Z,87.34
2022-07-31T07:33:49.384Z,87.00
2022-07-31T07:34:49.340Z,89.12
2022-07-31T07:35:49.301Z,89.22
2022-07-31T07:36:49.254Z,87.87
2022-07-31T07:37:49.217Z,87.96
2022-07-31T07:38:49.169Z,87.63
2022-07-31T07:39:49.128Z,86.86
2022-07-31T07:40:49.089Z,86.18
2022-07-31T07:41:49.051Z,86.03
2022-07-31T07:42:49.003Z,86.28
2022-07-31T07:43:52.400Z,86.96
2022-07-31T07:44:48.916Z,86.52
2022-07-31T07:45:48.877Z,85.60
2022-07-31T07:46:48.833Z,86.08
2022-07-31T07:48:05.332Z,86.42
2022-07-31T07:48:48.812Z,86.66
2022-07-31T07:49:48.708Z,86.86
2022-07-31T07:50:48.660Z,86.18
2022-07-31T07:51:58.350Z,85.36
2022-07-31T07:52:48.589Z,84.88
2022-07-31T07:53:48.537Z,84.93
2022-07-31T07:54:48.492Z,85.41
2022-07-31T07:55:48.451Z,85.84
2022-07-31T07:56:48.415Z,85.55
2022-07-31T07:57:48.369Z,85.94
2022-07-31T07:58:48.324Z,85.84
2022-07-31T07:59:48.290Z,84.83
2022-07-31T08:00:48.268Z,84.48
2022-07-31T08:01:48.199Z,84.54
2022-07-31T08:03:47.303Z,84.25
2022-07-31T08:03:52.106Z,84.74
2022-07-31T08:04:48.069Z,84.54
2022-07-31T08:05:48.034Z,84.16
2022-07-31T08:06:47.988Z,85.12
2022-07-31T08:07:47.943Z,85.12
2022-07-31T08:08:47.912Z,84.64
2022-07-31T08:09:47.860Z,84.39
2022-07-31T08:10:47.817Z,84.20
2022-07-31T08:11:47.779Z,83.81
2022-07-31T08:12:47.770Z,84.78
2022-07-31T08:13:50.991Z,84.68
2022-07-31T08:14:47.647Z,84.30
2022-07-31T08:15:47.606Z,83.87
2022-07-31T08:16:47.563Z,84.06
2022-07-31T08:17:47.531Z,84.00
2022-07-31T08:18:47.491Z,84.58
2022-07-31T08:19:51.138Z,84.48
2022-07-31T08:20:47.394Z,84.97
2022-07-31T08:21:47.356Z,84.58
2022-07-31T08:22:47.385Z,84.58
2022-07-31T08:23:47.275Z,84.78
2022-07-31T08:24:47.226Z,84.30
2022-07-31T08:25:47.187Z,83.91
2022-07-31T08:26:47.140Z,83.81
2022-07-31T08:27:47.861Z,84.20
2022-07-31T08:28:49.820Z,83.81
2022-07-31T08:29:47.016Z,84.10
2022-07-31T08:30:46.975Z,84.20
2022-07-31T08:31:49.324Z,84.58
2022-07-31T08:32:47.003Z,85.26
2022-07-31T08:33:46.850Z,84.78
2022-07-31T08:34:46.814Z,84.63
2022-07-31T08:35:50.642Z,84.53
2022-07-31T08:36:46.720Z,84.39
2022-07-31T08:37:52.500Z,84.63
2022-07-31T08:38:46.634Z,84.63
2022-07-31T08:39:46.593Z,85.59
2022-07-31T08:40:46.557Z,85.01
2022-07-31T08:41:46.509Z,84.97
2022-07-31T08:42:46.476Z,84.48
2022-07-31T08:43:59.824Z,84.14
2022-07-31T08:44:46.381Z,84.39
2022-07-31T08:45:46.341Z,85.40
2022-07-31T08:46:46.299Z,85.01
2022-07-31T08:47:46.258Z,85.01
2022-07-31T08:48:46.264Z,84.91
2022-07-31T08:49:46.176Z,84.63
2022-07-31T08:50:47.971Z,84.72
2022-07-31T08:51:51.597Z,84.24
2022-07-31T08:52:46.144Z,84.91
2022-07-31T08:53:46.005Z,85.40
2022-07-31T08:54:45.960Z,85.21
2022-07-31T08:55:56.136Z,85.21
2022-07-31T08:56:45.876Z,84.24
2022-07-31T08:57:45.836Z,85.30
2022-07-31T08:58:45.791Z,85.21
2022-07-31T08:59:45.753Z,84.95
2022-07-31T09:00:45.745Z,85.73
2022-07-31T09:01:45.670Z,86.21
2022-07-31T09:02:45.645Z,85.83
2022-07-31T09:03:45.590Z,86.60
2022-07-31T09:04:49.258Z,87.76
2022-07-31T09:05:45.501Z,87.57
2022-07-31T09:06:45.455Z,86.79
2022-07-31T09:07:45.417Z,86.89
2022-07-31T09:08:45.374Z,86.16
2022-07-31T09:09:51.506Z,86.41
2022-07-31T09:10:50.041Z,87.37
2022-07-31T09:11:45.248Z,87.27
2022-07-31T09:12:45.264Z,87.99
2022-07-31T09:13:45.166Z,85.97
2022-07-31T09:14:45.121Z,85.10
2022-07-31T09:15:45.088Z,84.52
2022-07-31T09:16:45.041Z,84.52
2022-07-31T09:17:51.908Z,84.42
2022-07-31T09:18:44.953Z,84.32
2022-07-31T09:19:52.508Z,84.03
2022-07-31T09:20:44.872Z,84.52
2022-07-31T09:21:44.833Z,84.71
2022-07-31T09:22:44.787Z,83.45
2022-07-31T09:23:44.747Z,83.55
2022-07-31T09:24:44.705Z,83.55
2022-07-31T09:25:44.663Z,83.64
2022-07-31T09:26:44.619Z,83.49
2022-07-31T09:27:44.579Z,83.69
2022-07-31T09:28:44.536Z,83.26
2022-07-31T09:29:44.497Z,83.20
2022-07-31T09:30:56.179Z,83.11
2022-07-31T09:31:44.416Z,83.11
2022-07-31T09:32:44.374Z,83.06
2022-07-31T09:33:46.022Z,82.81
2022-07-31T09:34:44.287Z,83.11
2022-07-31T09:35:44.246Z,83.01
2022-07-31T09:36:44.206Z,82.91
2022-07-31T09:37:44.166Z,83.01
2022-07-31T09:38:44.126Z,83.11
2022-07-31T09:39:52.303Z,83.11
2022-07-31T09:40:56.859Z,82.91
2022-07-31T09:41:58.155Z,83.01
2022-07-31T09:42:45.718Z,82.91
2022-07-31T09:43:51.906Z,83.01
2022-07-31T09:44:43.872Z,83.15
2022-07-31T09:45:48.366Z,82.91
2022-07-31T09:46:43.786Z,82.37
2022-07-31T09:47:43.748Z,82.28
2022-07-31T09:48:44.111Z,81.79
2022-07-31T09:49:43.663Z,82.28
2022-07-31T09:50:43.620Z,82.14
2022-07-31T09:51:43.582Z,82.28
2022-07-31T09:52:43.610Z,82.08
2022-07-31T09:53:43.880Z,81.50
2022-07-31T09:54:43.454Z,81.98
2022-07-31T09:55:43.414Z,82.28
2022-07-31T09:56:43.372Z,81.98
2022-07-31T09:57:50.101Z,81.98
2022-07-31T09:58:43.287Z,82.28
2022-07-31T09:59:43.247Z,81.70
2022-07-31T10:00:43.293Z,81.40
2022-07-31T10:01:43.166Z,81.40
2022-07-31T10:02:43.125Z,81.21
2022-07-31T10:03:43.086Z,80.92
2022-07-31T10:04:43.047Z,80.82
2022-07-31T10:05:43.004Z,80.63
2022-07-31T10:06:42.957Z,80.54
2022-07-31T10:07:42.917Z,81.12
2022-07-31T10:08:42.873Z,80.67
2022-07-31T10:09:42.845Z,80.96
2022-07-31T10:10:42.791Z,80.87
2022-07-31T10:11:42.752Z,80.67
2022-07-31T10:12:42.723Z,79.70
2022-07-31T10:13:42.668Z,79.70
2022-07-31T10:14:42.625Z,79.99
2022-07-31T10:15:42.589Z,79.90
2022-07-31T10:16:42.543Z,79.80
2022-07-31T10:17:42.505Z,79.80
2022-07-31T10:18:44.666Z,79.90
2022-07-31T10:19:42.423Z,79.80
2022-07-31T10:20:42.378Z,79.22
2022-07-31T10:21:42.339Z,79.80
2022-07-31T10:22:42.345Z,79.22
2022-07-31T10:23:42.278Z,79.45
2022-07-31T10:24:42.213Z,79.45
2022-07-31T10:25:42.175Z,79.45
2022-07-31T10:27:42.129Z,79.35
2022-07-31T10:28:42.050Z,79.06
2022-07-31T10:29:42.006Z,79.74
2022-07-31T10:30:41.963Z,79.55
2022-07-31T10:31:41.958Z,79.25
2022-07-31T10:32:41.938Z,79.84
2022-07-31T10:33:44.144Z,79.10
2022-07-31T10:34:41.801Z,78.61
2022-07-31T10:35:41.760Z,78.13
2022-07-31T10:36:41.716Z,77.94
2022-07-31T10:37:41.678Z,78.23
2022-07-31T10:38:41.633Z,77.84
2022-07-31T10:39:41.597Z,77.65
2022-07-31T10:40:41.552Z,77.65
2022-07-31T10:41:41.513Z,77.11
2022-07-31T10:42:41.508Z,76.91
2022-07-31T10:43:41.431Z,76.91
2022-07-31T10:44:41.389Z,77.11
2022-07-31T10:45:41.349Z,76.72
2022-07-31T10:46:41.378Z,76.81
2022-07-31T10:47:48.105Z,76.52
2022-07-31T10:48:41.225Z,76.81
2022-07-31T10:49:41.254Z,76.91
2022-07-31T10:50:41.157Z,75.84
2022-07-31T10:51:41.103Z,76.37
2022-07-31T10:52:41.068Z,76.65
2022-07-31T10:53:51.423Z,76.07
2022-07-31T10:54:40.978Z,77.34
2022-07-31T10:55:40.938Z,77.04
2022-07-31T10:56:40.896Z,75.30
2022-07-31T10:57:56.079Z,75.40
2022-07-31T10:58:40.816Z,75.78
2022-07-31T10:59:44.583Z,75.59
2022-07-31T11:00:40.737Z,76.01
2022-07-31T11:01:40.762Z,75.24
2022-07-31T11:02:40.774Z,74.95
2022-07-31T11:03:40.611Z,75.24
2022-07-31T11:04:40.587Z,74.95
2022-07-31T11:06:01.500Z,74.65
2022-07-31T11:06:40.496Z,74.46
2022-07-31T11:07:40.450Z,74.17
2022-07-31T11:08:40.482Z,73.58
2022-07-31T11:09:50.271Z,73.78
2022-07-31T11:10:40.329Z,73.88
2022-07-31T11:11:40.295Z,73.00
2022-07-31T11:12:40.272Z,73.20
2022-07-31T11:13:40.244Z,73.91
2022-07-31T11:14:40.214Z,74.37
2022-07-31T11:15:40.126Z,73.30
2022-07-31T11:16:40.088Z,73.58
2022-07-31T11:18:23.342Z,73.78
2022-07-31T11:18:40.008Z,74.07
2022-07-31T11:19:41.087Z,73.88
2022-07-31T11:20:39.925Z,75.14
2022-07-31T11:21:40.161Z,75.04
2022-07-31T11:22:39.841Z,76.01
2022-07-31T11:23:39.799Z,75.24
2022-07-31T11:24:39.762Z,76.31
2022-07-31T11:25:39.722Z,76.89
2022-07-31T11:26:41.983Z,77.37
2022-07-31T11:27:39.636Z,77.57
2022-07-31T11:28:39.599Z,79.41
2022-07-31T11:29:58.898Z,80.19
2022-07-31T11:30:39.515Z,82.03
2022-07-31T11:31:39.477Z,82.71
2022-07-31T11:32:39.486Z,82.13
2022-07-31T11:33:42.789Z,82.57
2022-07-31T11:34:39.353Z,82.57
2022-07-31T11:35:39.311Z,84.03
2022-07-31T11:36:39.275Z,82.38
2022-07-31T11:37:56.674Z,82.57
2022-07-31T11:38:39.233Z,82.48
2022-07-31T11:39:39.147Z,83.74
2022-07-31T11:40:39.109Z,82.44
2022-07-31T11:41:43.940Z,83.02
2022-07-31T11:42:39.065Z,83.60
2022-07-31T11:43:38.986Z,83.02
2022-07-31T11:44:38.949Z,83.99
2022-07-31T11:45:38.904Z,84.38
2022-07-31T11:46:38.870Z,83.89
2022-07-31T11:48:12.195Z,82.63
2022-07-31T11:48:43.516Z,83.70
2022-07-31T11:49:47.915Z,83.89
2022-07-31T11:50:38.700Z,84.09
2022-07-31T11:51:38.659Z,83.22
2022-07-31T11:52:38.620Z,82.44
2022-07-31T11:53:38.577Z,82.34
2022-07-31T11:54:38.538Z,81.47
2022-07-31T11:55:38.493Z,82.34
2022-07-31T11:56:38.456Z,82.92
2022-07-31T11:57:51.379Z,81.37
2022-07-31T11:58:38.373Z,82.24
2022-07-31T11:59:45.045Z,84.19
2022-07-31T12:00:38.297Z,82.53
2022-07-31T12:01:38.250Z,80.79
2022-07-31T12:02:38.303Z,81.66
2022-07-31T12:03:38.167Z,81.08
2022-07-31T12:04:38.127Z,81.08
2022-07-31T12:05:39.498Z,81.66
2022-07-31T12:06:38.044Z,80.60
2022-07-31T12:07:38.004Z,79.53
2022-07-31T12:08:37.965Z,78.85
2022-07-31T12:10:01.982Z,79.66
2022-07-31T12:10:37.883Z,78.56
2022-07-31T12:11:37.840Z,78.50
2022-07-31T12:12:37.924Z,78.11
2022-07-31T12:13:38.526Z,77.53
2022-07-31T12:14:37.719Z,77.62
2022-07-31T12:15:37.678Z,77.62
2022-07-31T12:16:37.643Z,77.57
2022-07-31T12:17:37.595Z,77.57
2022-07-31T12:18:37.554Z,75.92
2022-07-31T12:19:38.832Z,75.82
2022-07-31T12:20:37.475Z,76.11
2022-07-31T12:21:37.431Z,76.31
2022-07-31T12:22:37.394Z,76.60
2022-07-31T12:23:38.787Z,76.69
2022-07-31T12:24:37.310Z,75.82
2022-07-31T12:25:37.272Z,75.92
2022-07-31T12:26:37.229Z,74.95
2022-07-31T12:27:37.189Z,75.24
2022-07-31T12:28:37.148Z,74.85
2022-07-31T12:29:37.106Z,74.37
2022-07-31T12:30:37.068Z,74.65
2022-07-31T12:31:37.026Z,74.85
2022-07-31T12:32:36.989Z,74.95
2022-07-31T12:33:36.944Z,75.04
2022-07-31T12:34:36.908Z,75.04
2022-07-31T12:35:55.295Z,75.14
2022-07-31T12:36:36.825Z,75.82
2022-07-31T12:37:36.780Z,76.11
2022-07-31T12:38:44.738Z,75.82
2022-07-31T12:39:54.177Z,74.85
2022-07-31T12:40:36.660Z,75.24
2022-07-31T12:41:36.619Z,76.01
2022-07-31T12:42:41.675Z,75.34
2022-07-31T12:43:36.538Z,76.01
2022-07-31T12:44:36.497Z,75.72
2022-07-31T12:45:36.456Z,75.43
2022-07-31T12:46:36.417Z,75.72
2022-07-31T12:47:36.372Z,75.82
2022-07-31T12:48:40.172Z,75.04
2022-07-31T12:49:36.385Z,75.14
2022-07-31T12:50:36.255Z,74.95
2022-07-31T12:51:44.334Z,75.24
2022-07-31T12:52:36.173Z,76.01
2022-07-31T12:53:36.129Z,75.85
2022-07-31T12:54:39.407Z,74.56
2022-07-31T12:55:36.048Z,73.62
2022-07-31T12:56:36.013Z,73.91
2022-07-31T12:57:35.971Z,73.43
2022-07-31T12:58:35.928Z,73.33